Time;durP1;ratioP1;P1;durP2;ratioP2;P2;SDS_P1;SDS_P2;PMS_P1;PMS_P2;Temp;Humidity;BMP_temperature;BMP_pressure;BME280_temperature;BME280_humidity;BME280_pressure;Samples;Min_cycle;Max_cycle;Signal;HPM_P1;HPM_P2
2021/03/06 00:01:00;;;;;;;17.70;10.27;;;;;-2.10;102761.00;;;;10423452;28;20256;-76
2021/03/06 00:06:04;;;;;;;15.10;9.80;;;;;-2.20;102756.00;;;;10456678;28;20268;-76
2021/03/06 00:11:05;;;;;;;18.17;10.43;;;;;-2.20;102751.00;;;;10397851;28;20625;-76
2021/03/06 00:16:55;;;;;;;23.03;13.77;;;;;-2.30;102758.00;;;;10438304;28;20197;-76
2021/03/06 00:21:56;;;;;;;19.57;10.67;;;;;-2.30;102763.00;;;;10422427;28;20202;-76
2021/03/06 00:26:57;;;;;;;20.80;11.17;;;;;-2.40;102767.00;;;;10455986;28;20201;-75
2021/03/06 00:32:01;;;;;;;20.67;11.07;;;;;-2.50;102769.00;;;;10439168;28;20186;-76
2021/03/06 00:37:03;;;;;;;17.67;11.17;;;;;-2.50;102767.00;;;;10479689;28;20190;-76
2021/03/06 00:42:04;;;;;;;17.37;11.60;;;;;-2.50;102769.00;;;;10397229;28;20238;-76
2021/03/06 00:47:06;;;;;;;17.20;12.03;;;;;-2.60;102774.00;;;;10413489;28;20190;-76
2021/03/06 00:52:07;;;;;;;18.93;11.57;;;;;-2.60;102774.00;;;;10414247;28;20255;-76
2021/03/06 00:57:09;;;;;;;16.97;10.13;;;;;-2.60;102775.00;;;;10404911;28;20206;-76
2021/03/06 01:02:11;;;;;;;18.63;12.60;;;;;-2.50;102770.00;;;;10470144;28;20674;-76
2021/03/06 01:07:15;;;;;;;15.27;10.27;;;;;-2.40;102764.00;;;;10458181;28;20199;-76
2021/03/06 01:12:16;;;;;;;16.73;10.33;;;;;-2.40;102764.00;;;;10487862;28;20666;-76
2021/03/06 01:17:18;;;;;;;14.50;10.13;;;;;-2.40;102763.00;;;;10504208;28;20192;-76
2021/03/06 01:22:19;;;;;;;14.97;9.87;;;;;-2.50;102762.00;;;;10538655;28;20197;-76
2021/03/06 01:27:20;;;;;;;15.73;10.07;;;;;-2.50;102771.00;;;;10461708;28;20216;-76
2021/03/06 01:32:22;;;;;;;18.37;10.77;;;;;-2.60;102766.00;;;;10493665;28;20253;-76
2021/03/06 01:37:24;;;;;;;14.67;10.60;;;;;-2.60;102765.00;;;;10538960;28;20253;-76
2021/03/06 01:42:25;;;;;;;18.70;10.13;;;;;-2.70;102753.00;;;;10461893;28;20201;-76
2021/03/06 01:47:27;;;;;;;20.10;10.13;;;;;-2.70;102743.00;;;;10482467;28;20268;-76
2021/03/06 01:52:29;;;;;;;14.10;9.67;;;;;-2.80;102755.00;;;;10461780;28;20190;-76
2021/03/06 01:57:30;;;;;;;20.43;11.00;;;;;-2.90;102752.00;;;;10461910;28;20193;-76
2021/03/06 02:02:33;;;;;;;15.93;10.13;;;;;-2.90;102755.00;;;;10536532;28;20208;-76
2021/03/06 02:07:35;;;;;;;19.73;10.77;;;;;-3.00;102751.00;;;;10524482;28;20189;-76
2021/03/06 02:13:01;;;;;;;14.57;10.63;;;;;-3.00;102742.00;;;;10527298;28;20624;-76
2021/03/06 02:18:13;;;;;;;14.33;10.50;;;;;-3.10;102732.00;;;;10527311;28;20703;-76
2021/03/06 02:23:56;;;;;;;15.33;11.33;;;;;-3.10;102738.00;;;;10527142;28;20213;-76
2021/03/06 02:29:31;;;;;;;17.53;10.87;;;;;-3.10;102734.00;;;;10485614;28;20189;-76
2021/03/06 02:34:34;;;;;;;16.03;10.20;;;;;-3.20;102740.00;;;;10517888;28;20829;-76
2021/03/06 02:39:41;;;;;;;30.60;11.30;;;;;-3.20;102730.00;;;;10510027;28;20201;-76
2021/03/06 02:44:43;;;;;;;13.43;9.97;;;;;-3.30;102734.00;;;;10526483;28;20216;-76
2021/03/06 02:49:45;;;;;;;15.73;10.80;;;;;-3.30;102744.00;;;;10509689;28;20220;-76
2021/03/06 02:54:48;;;;;;;15.53;10.50;;;;;-3.30;102738.00;;;;10466844;28;20649;-76
2021/03/06 03:00:04;;;;;;;18.03;11.23;;;;;-3.30;102732.00;;;;10478877;28;20206;-76
2021/03/06 03:05:06;;;;;;;15.83;11.17;;;;;-3.40;102740.00;;;;10489998;28;20205;-76
2021/03/06 03:10:11;;;;;;;16.07;11.43;;;;;-3.40;102739.00;;;;10517154;28;20204;-76
2021/03/06 03:15:27;;;;;;;14.83;10.43;;;;;-3.40;102732.00;;;;10508131;28;20275;-76
2021/03/06 03:20:35;;;;;;;20.43;11.87;;;;;-3.50;102722.00;;;;10508045;28;20196;-76
2021/03/06 03:25:40;;;;;;;17.17;10.73;;;;;-3.50;102732.00;;;;10524042;28;20193;-76
2021/03/06 03:30:42;;;;;;;17.93;10.83;;;;;-3.50;102722.00;;;;10507301;28;20189;-76
2021/03/06 03:35:45;;;;;;;16.63;11.57;;;;;-3.60;102727.00;;;;10507351;28;20217;-76
2021/03/06 03:40:47;;;;;;;18.57;12.17;;;;;-3.60;102736.00;;;;10490274;28;20216;-76
2021/03/06 03:45:49;;;;;;;18.40;12.03;;;;;-3.60;102740.00;;;;10466065;28;20194;-76
2021/03/06 03:50:51;;;;;;;15.17;11.43;;;;;-3.70;102737.00;;;;10479313;28;20181;-76
2021/03/06 03:55:54;;;;;;;19.33;10.90;;;;;-3.70;102737.00;;;;10523107;28;20197;-76
2021/03/06 04:00:57;;;;;;;18.03;12.20;;;;;-3.70;102753.00;;;;10489265;28;20217;-76
2021/03/06 04:06:02;;;;;;;20.37;12.50;;;;;-3.70;102747.00;;;;10505883;28;20193;-76
2021/03/06 04:11:03;;;;;;;21.97;11.97;;;;;-3.80;102748.00;;;;10522275;28;20263;-76
2021/03/06 04:16:05;;;;;;;18.07;11.00;;;;;-3.80;102743.00;;;;10506111;28;20246;-76
2021/03/06 04:21:07;;;;;;;20.83;11.43;;;;;-3.80;102754.00;;;;10488782;28;20201;-76
2021/03/06 04:26:08;;;;;;;18.17;11.90;;;;;-3.80;102759.00;;;;10505098;28;20258;-76
2021/03/06 04:31:10;;;;;;;20.40;12.57;;;;;-3.80;102756.00;;;;10487523;28;20188;-76
2021/03/06 04:36:12;;;;;;;18.53;12.30;;;;;-3.90;102766.00;;;;10504814;28;20197;-76
2021/03/06 04:41:13;;;;;;;17.73;12.07;;;;;-3.90;102776.00;;;;10461296;28;20607;-76
2021/03/06 04:46:15;;;;;;;17.77;12.10;;;;;-3.90;102771.00;;;;10488212;28;20195;-76
2021/03/06 04:51:17;;;;;;;16.63;11.67;;;;;-3.90;102771.00;;;;10463112;28;20178;-76
2021/03/06 04:56:18;;;;;;;19.07;13.07;;;;;-4.00;102761.00;;;;10503185;28;20196;-76
2021/03/06 05:01:19;;;;;;;18.70;12.80;;;;;-4.00;102772.00;;;;10517069;28;20267;-76
2021/03/06 05:06:20;;;;;;;24.33;12.53;;;;;-4.00;102770.00;;;;10521320;28;20214;-76
2021/03/06 05:11:22;;;;;;;18.70;11.90;;;;;-4.00;102771.00;;;;10539434;28;20251;-76
2021/03/06 05:16:23;;;;;;;18.57;12.63;;;;;-4.00;102767.00;;;;10521285;28;20208;-76
2021/03/06 05:21:24;;;;;;;17.63;11.77;;;;;-4.00;102764.00;;;;10488082;28;20243;-76
2021/03/06 05:26:26;;;;;;;20.67;12.67;;;;;-4.10;102766.00;;;;10504056;28;20266;-76
2021/03/06 05:31:28;;;;;;;19.70;12.40;;;;;-4.20;102779.00;;;;10504343;28;20219;-76
2021/03/06 05:36:29;;;;;;;18.77;12.37;;;;;-4.20;102783.00;;;;10538914;28;20239;-76
2021/03/06 05:41:31;;;;;;;17.67;12.40;;;;;-4.20;102785.00;;;;10503559;28;20258;-76
2021/03/06 05:46:33;;;;;;;16.93;11.47;;;;;-4.20;102786.00;;;;10493831;28;20287;-76
2021/03/06 05:51:36;;;;;;;16.63;12.17;;;;;-4.30;102792.00;;;;10494814;28;20185;-76
2021/03/06 05:56:40;;;;;;;17.57;11.70;;;;;-4.30;102796.00;;;;10493772;28;20223;-76
2021/03/06 06:01:42;;;;;;;19.37;11.10;;;;;-4.30;102791.00;;;;10527371;28;20258;-76
2021/03/06 06:06:45;;;;;;;20.53;12.37;;;;;-4.30;102788.00;;;;10486430;28;20189;-76
2021/03/06 06:11:46;;;;;;;15.97;11.70;;;;;-4.30;102787.00;;;;10452308;28;20213;-76
2021/03/06 06:16:48;;;;;;;14.50;11.07;;;;;-4.30;102777.00;;;;10493013;28;20868;-76
2021/03/06 06:21:50;;;;;;;16.03;12.00;;;;;-4.30;102783.00;;;;10510447;28;20200;-76
2021/03/06 06:27:05;;;;;;;13.93;10.33;;;;;-4.30;102792.00;;;;10523172;28;20273;-76
2021/03/06 06:32:11;;;;;;;17.63;11.70;;;;;-4.30;102785.00;;;;10514262;28;20583;-76
2021/03/06 06:37:14;;;;;;;21.37;11.87;;;;;-4.20;102798.00;;;;10515390;28;20705;-76
2021/03/06 06:42:16;;;;;;;20.47;12.97;;;;;-4.10;102798.00;;;;10492621;28;20258;-76
2021/03/06 06:47:18;;;;;;;20.80;13.10;;;;;-4.00;102804.00;;;;10526028;28;20224;-76
2021/03/06 06:52:22;;;;;;;21.93;13.43;;;;;-3.80;102800.00;;;;10522283;28;20281;-76
2021/03/06 06:57:25;;;;;;;21.23;13.87;;;;;-3.50;102804.00;;;;10524778;28;20704;-76
2021/03/06 07:02:27;;;;;;;25.83;14.80;;;;;-3.20;102808.00;;;;10503224;28;20221;-77
2021/03/06 07:07:42;;;;;;;21.73;15.37;;;;;-2.80;102819.00;;;;10459863;28;20233;-77
2021/03/06 07:12:48;;;;;;;22.90;14.40;;;;;-2.50;102818.00;;;;10508313;28;20236;-77
2021/03/06 07:17:52;;;;;;;20.10;14.50;;;;;-2.10;102826.00;;;;10473879;28;20632;-77
2021/03/06 07:23:10;;;;;;;21.00;13.47;;;;;-1.70;102829.00;;;;10491368;28;20205;-77
2021/03/06 07:28:11;;;;;;;23.57;14.30;;;;;-1.20;102830.00;;;;10507131;28;20189;-77
2021/03/06 07:33:16;;;;;;;18.90;13.10;;;;;-0.60;102842.00;;;;10507388;28;20266;-77
2021/03/06 07:38:19;;;;;;;19.87;11.00;;;;;0.00;102838.00;;;;10523378;28;20655;-77
2021/03/06 07:43:29;;;;;;;16.30;11.23;;;;;0.40;102835.00;;;;10491124;28;20290;-77
2021/03/06 07:48:53;;;;;;;13.60;10.53;;;;;0.80;102829.00;;;;10474396;28;20197;-77
2021/03/06 07:53:55;;;;;;;16.30;10.77;;;;;1.00;102825.00;;;;10457360;28;20202;-77
2021/03/06 07:58:56;;;;;;;18.17;10.97;;;;;1.20;102829.00;;;;10473210;28;20193;-77
2021/03/06 08:03:58;;;;;;;13.60;10.67;;;;;1.30;102842.00;;;;10488836;28;20243;-77
2021/03/06 08:09:01;;;;;;;16.10;12.20;;;;;1.50;102833.00;;;;10504884;28;20193;-77
2021/03/06 08:14:06;;;;;;;20.03;11.83;;;;;1.80;102824.00;;;;10506136;28;20212;-77
2021/03/06 08:19:12;;;;;;;17.70;11.57;;;;;2.20;102813.00;;;;10497730;28;20529;-77
2021/03/06 08:24:13;;;;;;;14.27;9.93;;;;;2.60;102816.00;;;;10480084;28;20296;-75
2021/03/06 08:29:24;;;;;;;11.13;9.13;;;;;3.00;102819.00;;;;10487089;28;20193;-75
2021/03/06 08:34:48;;;;;;;13.23;9.70;;;;;3.40;102817.00;;;;10505214;28;20185;-76
2021/03/06 08:39:57;;;;;;;16.20;9.87;;;;;3.60;102819.00;;;;10483819;28;20223;-75
2021/03/06 08:45:29;;;;;;;12.57;10.27;;;;;4.00;102812.00;;;;10503309;28;20212;-75
2021/03/06 08:50:35;;;;;;;14.43;9.00;;;;;4.30;102808.00;;;;10518103;28;20555;-75
2021/03/06 08:55:40;;;;;;;14.53;7.70;;;;;4.60;102813.00;;;;10502132;28;20689;-75
2021/03/06 09:00:55;;;;;;;11.23;8.40;;;;;5.00;102823.00;;;;10519037;28;20200;-75
2021/03/06 09:06:00;;;;;;;16.87;8.27;;;;;5.20;102818.00;;;;10477876;28;20578;-75
2021/03/06 09:11:04;;;;;;;9.30;7.80;;;;;5.40;102823.00;;;;10483512;28;20209;-75
2021/03/06 09:16:05;;;;;;;8.43;6.90;;;;;5.80;102822.00;;;;10470058;28;20595;-75
2021/03/06 09:21:13;;;;;;;10.60;7.63;;;;;6.20;102816.00;;;;10504119;28;20213;-75
2021/03/06 09:26:18;;;;;;;9.67;6.30;;;;;6.40;102818.00;;;;10513039;28;20678;-76
2021/03/06 09:31:29;;;;;;;11.73;7.27;;;;;6.80;102822.00;;;;10515870;28;20198;-75
2021/03/06 09:36:32;;;;;;;11.60;6.40;;;;;7.10;102821.00;;;;10501803;28;20631;-75
2021/03/06 09:41:38;;;;;;;8.93;6.47;;;;;7.30;102810.00;;;;10490624;28;20217;-75
2021/03/06 09:46:39;;;;;;;9.73;6.90;;;;;7.60;102813.00;;;;10494079;28;20272;-75
2021/03/06 09:51:47;;;;;;;12.23;7.07;;;;;7.90;102804.00;;;;10499927;28;20234;-75
2021/03/06 09:56:53;;;;;;;8.37;6.33;;;;;8.30;102795.00;;;;10510585;28;20251;-75
2021/03/06 10:02:04;;;;;;;6.03;5.40;;;;;8.60;102805.00;;;;10493198;28;20212;-75
2021/03/06 10:07:11;;;;;;;11.43;5.67;;;;;8.70;102793.00;;;;10479623;28;20197;-75
2021/03/06 10:12:16;;;;;;;6.27;4.77;;;;;8.80;102797.00;;;;10482047;28;20201;-75
2021/03/06 10:17:24;;;;;;;5.33;4.40;;;;;9.00;102793.00;;;;10493207;28;20189;-76
2021/03/06 10:22:29;;;;;;;5.77;3.70;;;;;9.00;102780.00;;;;10510857;28;20208;-76
2021/03/06 10:27:39;;;;;;;6.17;3.50;;;;;9.00;102784.00;;;;10527032;28;20246;-75
2021/03/06 10:32:42;;;;;;;6.20;3.47;;;;;9.20;102782.00;;;;10508872;28;20875;-75
2021/03/06 10:37:51;;;;;;;4.57;3.20;;;;;9.20;102787.00;;;;10517210;28;20708;-75
2021/03/06 10:42:52;;;;;;;5.20;3.27;;;;;9.40;102771.00;;;;10516610;28;20212;-75
2021/03/06 10:47:57;;;;;;;8.37;3.93;;;;;9.50;102769.00;;;;10503194;28;20652;-75
2021/03/06 10:53:19;;;;;;;6.47;4.33;;;;;9.80;102773.00;;;;10488834;28;20246;-75
2021/03/06 10:58:39;;;;;;;7.33;4.50;;;;;10.00;102781.00;;;;10478229;28;20232;-75
2021/03/06 11:03:52;;;;;;;7.03;5.50;;;;;10.20;102769.00;;;;10494227;28;20200;-75
2021/03/06 11:09:05;;;;;;;6.10;4.80;;;;;10.40;102771.00;;;;10500396;28;20247;-75
2021/03/06 11:14:27;;;;;;;6.83;5.50;;;;;10.70;102775.00;;;;10498108;28;20209;-75
2021/03/06 11:19:28;;;;;;;10.07;5.67;;;;;10.60;102768.00;;;;10542269;28;20220;-75
2021/03/06 11:24:30;;;;;;;5.00;4.17;;;;;10.70;102751.00;;;;10506775;28;20197;-76
2021/03/06 11:29:32;;;;;;;7.40;4.57;;;;;11.00;102752.00;;;;10512114;28;20185;-75
2021/03/06 11:34:33;;;;;;;9.63;5.23;;;;;11.00;102757.00;;;;10523223;28;20228;-75
2021/03/06 11:39:35;;;;;;;7.77;5.33;;;;;10.80;102752.00;;;;10486151;28;20193;-75
2021/03/06 11:44:36;;;;;;;8.17;4.33;;;;;10.90;102741.00;;;;10522737;28;20204;-76
2021/03/06 11:49:38;;;;;;;7.93;3.90;;;;;11.00;102753.00;;;;10523644;28;20192;-77
2021/03/06 11:54:39;;;;;;;5.73;4.33;;;;;11.10;102745.00;;;;10520232;28;20192;-76
2021/03/06 11:59:57;;;;;;;5.23;4.50;;;;;11.20;102743.00;;;;10507157;28;20204;-75
2021/03/06 12:04:59;;;;;;;5.97;4.00;;;;;11.30;102742.00;;;;10517031;28;20667;-76
2021/03/06 12:10:03;;;;;;;7.20;3.57;;;;;11.30;102726.00;;;;10522115;28;20192;-76
2021/03/06 12:15:06;;;;;;;4.70;3.20;;;;;11.50;102716.00;;;;10481322;28;20375;-76
2021/03/06 12:20:10;;;;;;;6.47;3.80;;;;;11.70;102704.00;;;;10495984;28;20205;-76
2021/03/06 12:25:13;;;;;;;4.67;4.10;;;;;11.70;102700.00;;;;10495870;28;20209;-76
2021/03/06 12:30:17;;;;;;;6.60;3.50;;;;;11.80;102697.00;;;;10530584;28;20233;-76
2021/03/06 12:35:18;;;;;;;3.90;3.30;;;;;11.80;102690.00;;;;10489718;28;20201;-76
2021/03/06 12:40:20;;;;;;;4.07;3.43;;;;;11.80;102672.00;;;;10503401;28;20189;-76
2021/03/06 12:45:21;;;;;;;3.93;3.03;;;;;11.70;102661.00;;;;10501652;28;20267;-76
2021/03/06 12:50:22;;;;;;;4.40;3.10;;;;;11.80;102658.00;;;;10521866;28;20172;-76
2021/03/06 12:55:24;;;;;;;4.80;3.00;;;;;11.70;102648.00;;;;10520092;28;20235;-75
2021/03/06 13:00:25;;;;;;;5.00;2.67;;;;;11.60;102654.00;;;;10520044;28;20243;-75
2021/03/06 13:05:31;;;;;;;3.77;3.00;;;;;11.70;102647.00;;;;10482598;28;20216;-75
2021/03/06 13:10:34;;;;;;;3.77;3.37;;;;;11.70;102642.00;;;;10493527;28;20660;-75
2021/03/06 13:15:35;;;;;;;3.87;3.33;;;;;11.90;102630.00;;;;10456989;28;20188;-75
2021/03/06 13:20:38;;;;;;;3.83;3.30;;;;;12.10;102624.00;;;;10490842;28;20185;-75
2021/03/06 13:25:40;;;;;;;4.43;3.40;;;;;12.00;102616.00;;;;10478317;28;20205;-75
2021/03/06 13:30:41;;;;;;;3.73;3.43;;;;;12.00;102620.00;;;;10466627;28;20598;-75
2021/03/06 13:35:52;;;;;;;6.00;3.00;;;;;12.00;102612.00;;;;10505079;28;20224;-75
2021/03/06 13:40:54;;;;;;;3.93;3.27;;;;;12.20;102611.00;;;;10503025;28;20203;-75
2021/03/06 13:45:55;;;;;;;3.90;3.23;;;;;12.30;102592.00;;;;10520387;28;20220;-75
2021/03/06 13:50:56;;;;;;;3.77;2.90;;;;;12.50;102588.00;;;;10538432;28;20196;-76
2021/03/06 13:55:58;;;;;;;4.43;3.23;;;;;12.50;102578.00;;;;10477387;28;20197;-75
2021/03/06 14:01:00;;;;;;;5.23;3.23;;;;;12.50;102584.00;;;;10488864;28;20254;-75
2021/03/06 14:06:21;;;;;;;4.83;3.50;;;;;12.70;102584.00;;;;10524497;28;20196;-75
2021/03/06 14:11:22;;;;;;;3.97;3.57;;;;;12.90;102587.00;;;;10467674;28;20252;-75
2021/03/06 14:16:23;;;;;;;5.97;3.60;;;;;13.50;102576.00;;;;10451243;28;20236;-75
2021/03/06 14:21:25;;;;;;;4.63;3.20;;;;;13.90;102575.00;;;;10484765;28;20237;-74
2021/03/06 14:26:28;;;;;;;5.33;3.43;;;;;13.70;102568.00;;;;10485257;28;20202;-75
2021/03/06 14:31:29;;;;;;;5.03;3.77;;;;;15.00;102561.00;;;;10468137;28;20272;-75
2021/03/06 14:36:46;;;;;;;5.43;4.20;;;;;15.20;102553.00;;;;10549715;28;20665;-74
2021/03/06 14:41:48;;;;;;;6.47;4.07;;;;;15.20;102541.00;;;;10534480;28;20208;-74
2021/03/06 14:46:49;;;;;;;6.30;4.00;;;;;15.90;102530.00;;;;10534457;28;20662;-74
2021/03/06 14:51:51;;;;;;;4.67;3.70;;;;;16.20;102522.00;;;;10550552;28;20673;-74
2021/03/06 14:56:52;;;;;;;4.53;3.90;;;;;14.60;102519.00;;;;10568237;28;20220;-75
2021/03/06 15:01:54;;;;;;;6.03;3.90;;;;;15.40;102503.00;;;;10567280;28;20755;-75
2021/03/06 15:07:09;;;;;;;4.87;3.43;;;;;14.50;102520.00;;;;10549697;28;20208;-74
2021/03/06 15:12:11;;;;;;;6.00;4.00;;;;;13.40;102504.00;;;;10472067;28;20213;-75
2021/03/06 15:17:12;;;;;;;4.43;3.50;;;;;11.90;102511.00;;;;10466100;28;20284;-74
2021/03/06 15:22:14;;;;;;;5.27;3.40;;;;;13.80;102477.00;;;;10466230;28;20210;-75
2021/03/06 15:27:15;;;;;;;5.10;4.00;;;;;13.90;102484.00;;;;10449412;28;20200;-76
2021/03/06 15:32:17;;;;;;;5.13;3.70;;;;;14.50;102452.00;;;;10482980;28;20693;-75
2021/03/06 15:37:33;;;;;;;5.37;3.63;;;;;13.50;102497.00;;;;10485177;28;20190;-75
2021/03/06 15:42:35;;;;;;;5.70;3.70;;;;;12.50;102471.00;;;;10482441;28;20220;-75
2021/03/06 15:47:36;;;;;;;5.73;3.70;;;;;12.50;102469.00;;;;10481933;28;20197;-75
2021/03/06 15:52:39;;;;;;;4.23;3.83;;;;;11.90;102464.00;;;;10495198;28;20827;-75
2021/03/06 15:57:41;;;;;;;6.33;4.70;;;;;10.90;102472.00;;;;10489678;28;20543;-75
2021/03/06 16:02:42;;;;;;;5.90;4.17;;;;;9.70;102479.00;;;;10505825;28;20228;-75
2021/03/06 16:07:57;;;;;;;5.93;3.40;;;;;9.30;102476.00;;;;10545436;28;20224;-75
2021/03/06 16:13:11;;;;;;;6.00;3.47;;;;;8.50;102466.00;;;;10507725;28;20956;-75
2021/03/06 16:18:12;;;;;;;5.83;3.87;;;;;7.90;102446.00;;;;10506160;28;20201;-75
2021/03/06 16:23:13;;;;;;;8.40;3.80;;;;;7.60;102442.00;;;;10522838;28;20330;-76
2021/03/06 16:28:15;;;;;;;7.77;3.73;;;;;7.40;102447.00;;;;10480712;28;20206;-75
2021/03/06 16:33:17;;;;;;;4.43;3.40;;;;;7.20;102450.00;;;;10464068;28;20193;-75
2021/03/06 16:38:21;;;;;;;6.27;3.60;;;;;7.00;102444.00;;;;10479123;28;20268;-75
2021/03/06 16:43:27;;;;;;;6.40;3.90;;;;;6.80;102442.00;;;;10462675;28;20213;-75
2021/03/06 16:48:29;;;;;;;7.33;4.83;;;;;6.70;102441.00;;;;10446340;28;20228;-75
2021/03/06 16:53:31;;;;;;;11.20;5.60;;;;;6.60;102437.00;;;;10479703;28;20739;-75
2021/03/06 16:58:33;;;;;;;8.23;6.03;;;;;6.50;102430.00;;;;10463172;28;20228;-75
2021/03/06 17:03:35;;;;;;;9.63;6.23;;;;;6.30;102428.00;;;;10463141;28;20221;-75
2021/03/06 17:08:44;;;;;;;7.27;6.13;;;;;6.20;102429.00;;;;10481459;28;20605;-75
2021/03/06 17:13:46;;;;;;;11.77;6.13;;;;;6.00;102435.00;;;;10462914;28;20288;-75
2021/03/06 17:18:48;;;;;;;9.47;6.40;;;;;5.80;102424.00;;;;10479665;28;20197;-75
2021/03/06 17:23:50;;;;;;;9.60;6.73;;;;;5.60;102437.00;;;;10462280;28;20219;-75
2021/03/06 17:28:52;;;;;;;6.97;6.10;;;;;5.40;102441.00;;;;10461922;28;20663;-75
2021/03/06 17:33:54;;;;;;;8.83;6.50;;;;;5.20;102439.00;;;;10490267;28;20184;-74
2021/03/06 17:39:06;;;;;;;9.93;6.10;;;;;5.00;102432.00;;;;10546578;28;20192;-74
2021/03/06 17:44:08;;;;;;;8.57;6.70;;;;;4.80;102432.00;;;;10494900;28;20609;-74
2021/03/06 17:49:10;;;;;;;10.87;7.50;;;;;4.60;102433.00;;;;10511362;28;20196;-74
2021/03/06 17:54:13;;;;;;;13.17;8.03;;;;;4.50;102432.00;;;;10511741;28;20200;-74
2021/03/06 17:59:15;;;;;;;16.23;9.33;;;;;4.30;102431.00;;;;10545631;28;20209;-74
2021/03/06 18:04:16;;;;;;;17.60;10.60;;;;;4.20;102433.00;;;;10510501;28;20213;-74
2021/03/06 18:09:27;;;;;;;13.53;12.03;;;;;4.10;102427.00;;;;10510256;28;20647;-74
2021/03/06 18:14:30;;;;;;;13.20;8.53;;;;;4.00;102424.00;;;;10510508;28;20238;-74
2021/03/06 18:19:32;;;;;;;12.03;8.50;;;;;3.90;102416.00;;;;10510352;28;20697;-74
2021/03/06 18:24:36;;;;;;;11.40;7.17;;;;;3.80;102417.00;;;;10493660;28;20575;-74
2021/03/06 18:29:38;;;;;;;8.93;7.57;;;;;3.60;102416.00;;;;10527223;28;20184;-75
2021/03/06 18:34:39;;;;;;;12.43;8.37;;;;;3.50;102411.00;;;;10526640;28;20188;-75
2021/03/06 18:39:52;;;;;;;12.97;9.80;;;;;3.40;102412.00;;;;10494228;28;20188;-75
2021/03/06 18:45:07;;;;;;;13.77;10.10;;;;;3.20;102408.00;;;;10509505;28;20556;-75
2021/03/06 18:50:12;;;;;;;15.07;10.50;;;;;3.20;102400.00;;;;10508685;28;20284;-74
2021/03/06 18:55:15;;;;;;;15.00;9.43;;;;;3.20;102397.00;;;;10508800;28;20267;-74
2021/03/06 19:00:23;;;;;;;10.23;8.67;;;;;3.10;102386.00;;;;10526589;28;20200;-75
2021/03/06 19:05:25;;;;;;;10.37;9.07;;;;;3.00;102389.00;;;;10550099;28;20287;-75
2021/03/06 19:10:26;;;;;;;15.10;11.00;;;;;2.90;102375.00;;;;10536607;28;20200;-75
2021/03/06 19:15:28;;;;;;;13.50;10.37;;;;;2.80;102369.00;;;;10524558;28;20255;-74
2021/03/06 19:20:29;;;;;;;13.67;10.17;;;;;2.70;102371.00;;;;10542583;28;20196;-74
2021/03/06 19:25:30;;;;;;;13.70;10.10;;;;;2.60;102371.00;;;;10490956;28;20265;-75
2021/03/06 19:30:32;;;;;;;24.17;10.10;;;;;2.40;102370.00;;;;10524841;28;20184;-74
2021/03/06 19:35:34;;;;;;;14.90;9.53;;;;;2.40;102372.00;;;;10524264;28;20193;-74
2021/03/06 19:40:42;;;;;;;14.90;9.20;;;;;2.30;102374.00;;;;10481980;28;20207;-75
2021/03/06 19:45:44;;;;;;;12.27;9.23;;;;;2.10;102372.00;;;;10498353;28;20205;-75
2021/03/06 19:50:47;;;;;;;14.83;10.00;;;;;2.00;102361.00;;;;10481960;28;20190;-74
2021/03/06 19:55:51;;;;;;;14.97;9.20;;;;;1.80;102362.00;;;;10481764;28;20293;-74
2021/03/06 20:00:53;;;;;;;12.77;9.00;;;;;1.70;102371.00;;;;10464268;28;20221;-74
2021/03/06 20:05:55;;;;;;;14.10;8.77;;;;;1.60;102375.00;;;;10463976;28;20209;-74
2021/03/06 20:10:59;;;;;;;14.03;9.20;;;;;1.60;102375.00;;;;10497336;28;20688;-75
2021/03/06 20:16:03;;;;;;;16.83;10.23;;;;;1.50;102376.00;;;;10463960;28;20220;-74
2021/03/06 20:21:09;;;;;;;15.73;9.33;;;;;1.40;102369.00;;;;10463644;28;20200;-74
2021/03/06 20:26:10;;;;;;;13.97;9.97;;;;;1.40;102370.00;;;;10480650;28;20260;-74
2021/03/06 20:31:12;;;;;;;16.10;10.20;;;;;1.30;102370.00;;;;10490029;28;20250;-74
2021/03/06 20:36:14;;;;;;;16.90;9.60;;;;;1.20;102374.00;;;;10480154;28;20190;-74
2021/03/06 20:41:18;;;;;;;16.17;9.90;;;;;1.10;102366.00;;;;10480032;28;20713;-75
2021/03/06 20:46:20;;;;;;;12.13;9.40;;;;;1.00;102378.00;;;;10480179;28;20244;-74
2021/03/06 20:51:21;;;;;;;19.33;11.47;;;;;0.80;102383.00;;;;10446573;28;20277;-74
2021/03/06 20:56:23;;;;;;;19.27;11.93;;;;;0.70;102385.00;;;;10462795;28;20288;-74
2021/03/06 21:01:24;;;;;;;19.73;11.37;;;;;0.70;102378.00;;;;10496990;28;20203;-74
2021/03/06 21:06:27;;;;;;;15.03;10.70;;;;;0.60;102382.00;;;;10495954;28;20259;-74
2021/03/06 21:11:39;;;;;;;18.23;10.90;;;;;0.50;102382.00;;;;10495038;28;20232;-75
2021/03/06 21:16:40;;;;;;;17.30;10.20;;;;;0.40;102372.00;;;;10496160;28;20236;-74
2021/03/06 21:21:42;;;;;;;15.23;10.67;;;;;0.30;102382.00;;;;10495825;28;20189;-75
2021/03/06 21:26:43;;;;;;;15.50;10.50;;;;;0.30;102372.00;;;;10462223;28;20185;-74
2021/03/06 21:31:45;;;;;;;17.77;12.57;;;;;0.30;102378.00;;;;10461622;28;20606;-74
2021/03/06 21:36:46;;;;;;;17.83;12.60;;;;;0.20;102392.00;;;;10479073;28;20193;-74
2021/03/06 21:42:04;;;;;;;16.50;12.07;;;;;0.00;102395.00;;;;10431173;28;20308;-74
2021/03/06 21:47:05;;;;;;;18.13;12.20;;;;;-0.10;102389.00;;;;10496609;28;20179;-74
2021/03/06 21:52:07;;;;;;;23.60;17.50;;;;;-0.20;102391.00;;;;10461739;28;20196;-74
2021/03/06 21:57:08;;;;;;;21.07;15.27;;;;;-0.30;102385.00;;;;10477907;28;20205;-74
2021/03/06 22:02:35;;;;;;;22.87;14.53;;;;;-0.40;102384.00;;;;10478145;28;20225;-74
2021/03/06 22:07:37;;;;;;;20.83;14.27;;;;;-0.50;102378.00;;;;10523798;28;20220;-74
2021/03/06 22:12:39;;;;;;;19.37;14.40;;;;;-0.60;102372.00;;;;10502592;28;20269;-74
2021/03/06 22:17:40;;;;;;;24.13;16.07;;;;;-0.70;102372.00;;;;10536734;28;20243;-74
2021/03/06 22:22:42;;;;;;;21.83;14.93;;;;;-0.80;102366.00;;;;10520093;28;20288;-74
2021/03/06 22:27:43;;;;;;;21.67;13.77;;;;;-0.80;102354.00;;;;10524391;28;20220;-74
2021/03/06 22:32:47;;;;;;;21.73;15.93;;;;;-0.90;102349.00;;;;10526268;28;20693;-74
2021/03/06 22:37:49;;;;;;;23.20;15.20;;;;;-1.00;102345.00;;;;10509827;28;20660;-74
2021/03/06 22:42:50;;;;;;;29.37;16.60;;;;;-1.00;102338.00;;;;10509466;28;20679;-74
2021/03/06 22:47:52;;;;;;;23.57;17.10;;;;;-1.10;102332.00;;;;10525889;28;20193;-74
2021/03/06 22:52:53;;;;;;;24.17;16.60;;;;;-1.10;102328.00;;;;10525622;28;20234;-74
2021/03/06 22:57:55;;;;;;;23.67;16.47;;;;;-1.20;102327.00;;;;10525766;28;20246;-74
2021/03/06 23:03:03;;;;;;;25.17;16.77;;;;;-1.20;102316.00;;;;10508298;28;20757;-74
2021/03/06 23:08:05;;;;;;;23.27;16.57;;;;;-1.30;102326.00;;;;10525121;28;20200;-74
2021/03/06 23:13:09;;;;;;;29.53;18.87;;;;;-1.40;102319.00;;;;10542185;28;20213;-74
2021/03/06 23:18:11;;;;;;;23.20;16.60;;;;;-1.40;102317.00;;;;10508217;28;20189;-74
2021/03/06 23:23:14;;;;;;;26.07;17.17;;;;;-1.50;102311.00;;;;10524515;28;20205;-74
2021/03/06 23:28:15;;;;;;;25.33;16.87;;;;;-1.50;102306.00;;;;10541152;28;20599;-74
2021/03/06 23:33:19;;;;;;;22.93;15.67;;;;;-1.60;102312.00;;;;10524392;28;20188;-74
2021/03/06 23:38:22;;;;;;;27.93;16.03;;;;;-1.60;102310.00;;;;10524447;28;20288;-74
2021/03/06 23:43:31;;;;;;;24.67;16.53;;;;;-1.50;102300.00;;;;10508030;28;20212;-74
2021/03/06 23:48:44;;;;;;;25.73;16.37;;;;;-1.60;102298.00;;;;10540344;28;20192;-74
2021/03/06 23:53:48;;;;;;;26.17;15.07;;;;;-1.60;102289.00;;;;10507919;28;20189;-74
2021/03/06 23:58:50;;;;;;;23.53;16.33;;;;;-1.70;102290.00;;;;10540322;28;20200;-74
